Time;durP1;ratioP1;P1;durP2;ratioP2;P2;SDS_P1;SDS_P2;PMS_P1;PMS_P2;Temp;Humidity;BMP_temperature;BMP_pressure;BME280_temperature;BME280_humidity;BME280_pressure;Samples;Min_cycle;Max_cycle;Signal;HPM_P1;HPM_P2
2023/12/23 00:00:18;;;;;;;4.47;1.10;;;;;;;6.83;100.00;101011.25;5090801;28;20127;-36
2023/12/23 00:02:43;;;;;;;4.97;1.17;;;;;;;6.83;100.00;101010.38;5090012;28;20082;-36
2023/12/23 00:05:08;;;;;;;4.13;1.17;;;;;;;6.79;100.00;101006.47;5089867;28;20085;-36
2023/12/23 00:07:35;;;;;;;4.80;1.10;;;;;;;6.80;100.00;101011.63;5081854;28;20020;-36
2023/12/23 00:10:01;;;;;;;7.70;2.05;;;;;;;6.79;100.00;101007.28;5076805;28;20063;-36
2023/12/23 00:12:26;;;;;;;5.47;1.20;;;;;;;6.66;100.00;100986.56;5076296;28;20025;-36
2023/12/23 00:14:52;;;;;;;2.97;1.00;;;;;;;6.77;100.00;101009.34;5076162;28;20032;-36
2023/12/23 00:17:17;;;;;;;7.07;1.20;;;;;;;6.76;100.00;101002.31;5076162;28;20024;-36
2023/12/23 00:19:42;;;;;;;4.07;1.10;;;;;;;6.76;100.00;101004.16;5076172;28;20058;-37
2023/12/23 00:22:08;;;;;;;3.43;1.00;;;;;;;6.77;100.00;100995.06;5076377;28;20086;-36
2023/12/23 00:24:33;;;;;;;5.40;0.97;;;;;;;6.77;100.00;100992.38;5076060;28;20028;-36
2023/12/23 00:26:59;;;;;;;4.73;1.10;;;;;;;6.70;100.00;100993.19;5076821;28;20040;-36
2023/12/23 00:29:25;;;;;;;5.05;1.30;;;;;;;6.78;100.00;101000.22;5075880;28;20028;-36
2023/12/23 00:31:50;;;;;;;5.35;1.17;;;;;;;6.78;100.00;100996.72;5075888;28;20081;-36
2023/12/23 00:34:16;;;;;;;3.13;1.20;;;;;;;6.76;100.00;100999.63;5076175;28;20020;-36
2023/12/23 00:36:41;;;;;;;3.47;1.27;;;;;;;6.79;100.00;100998.41;5076076;28;20328;-36
2023/12/23 00:39:06;;;;;;;4.23;1.13;;;;;;;6.79;100.00;100990.34;5075707;28;20482;-36
2023/12/23 00:41:32;;;;;;;6.73;1.20;;;;;;;6.80;100.00;100994.69;5076011;28;20029;-36
2023/12/23 00:43:57;;;;;;;4.47;1.25;;;;;;;6.78;100.00;100994.84;5075372;28;20090;-36
2023/12/23 00:46:22;;;;;;;5.17;1.43;;;;;;;6.73;100.00;100970.44;5076181;28;20044;-36
2023/12/23 00:48:48;;;;;;;3.83;1.07;;;;;;;6.80;100.00;100975.88;5075306;28;20107;-36
2023/12/23 00:51:13;;;;;;;4.80;1.30;;;;;;;6.78;100.00;100973.34;5075803;28;20682;-36
2023/12/23 00:53:38;;;;;;;4.60;1.50;;;;;;;6.83;100.00;100976.28;5075490;28;20024;-36
2023/12/23 00:56:04;;;;;;;5.00;1.73;;;;;;;6.85;100.00;100978.78;5075145;28;20079;-36
2023/12/23 00:58:30;;;;;;;5.47;1.73;;;;;;;6.80;100.00;101000.06;5075673;28;20024;-36
2023/12/23 01:00:55;;;;;;;4.47;1.43;;;;;;;6.83;100.00;100972.75;5075556;28;20420;-36
2023/12/23 01:03:21;;;;;;;6.30;1.60;;;;;;;6.84;100.00;100977.94;5074963;28;20039;-36
2023/12/23 01:05:46;;;;;;;3.03;1.20;;;;;;;6.84;100.00;100977.13;5075571;28;20079;-36
2023/12/23 01:08:11;;;;;;;4.00;1.27;;;;;;;6.83;100.00;100960.16;5074935;28;20465;-36
2023/12/23 01:10:37;;;;;;;5.53;1.93;;;;;;;6.81;100.00;100956.84;5075917;28;20039;-36
2023/12/23 01:13:02;;;;;;;6.65;1.70;;;;;;;6.81;100.00;100954.16;5074764;28;20113;-39
2023/12/23 01:15:28;;;;;;;5.75;1.35;;;;;;;6.76;100.00;100947.72;5074950;28;20029;-36
2023/12/23 01:17:53;;;;;;;4.38;1.30;;;;;;;6.83;100.00;100954.78;5075178;28;20040;-36
2023/12/23 01:20:19;;;;;;;7.50;1.77;;;;;;;6.79;100.00;100934.72;5073996;28;20027;-36
2023/12/23 01:22:44;;;;;;;6.27;1.43;;;;;;;6.79;100.00;100932.03;5075550;28;20035;-36
2023/12/23 01:25:09;;;;;;;6.17;1.53;;;;;;;6.90;100.00;100938.66;5074523;28;20028;-36
2023/12/23 01:27:35;;;;;;;6.07;1.50;;;;;;;6.95;100.00;100942.38;5075139;28;20745;-36
2023/12/23 01:30:00;;;;;;;8.23;2.37;;;;;;;6.99;100.00;100940.13;5074416;28;20028;-36
2023/12/23 01:32:25;;;;;;;10.70;1.90;;;;;;;7.02;100.00;100933.50;5074367;28;20029;-36
2023/12/23 01:34:51;;;;;;;7.67;1.70;;;;;;;7.05;100.00;100927.72;5074599;28;20111;-36
2023/12/23 01:37:16;;;;;;;9.05;1.85;;;;;;;7.07;100.00;100923.78;5074606;28;20024;-36
2023/12/23 01:39:42;;;;;;;5.30;1.83;;;;;;;7.12;100.00;100920.47;5074781;28;20350;-36
2023/12/23 01:42:07;;;;;;;8.87;2.20;;;;;;;7.19;100.00;100915.94;5074252;28;20486;-36
2023/12/23 01:44:32;;;;;;;11.57;2.10;;;;;;;7.25;100.00;100907.03;5074165;28;20267;-36
2023/12/23 01:47:02;;;;;;;10.83;2.23;;;;;;;7.31;100.00;100908.88;5075244;28;20056;-36
2023/12/23 01:49:29;;;;;;;9.00;2.05;;;;;;;7.41;100.00;100903.09;5073417;28;20032;-36
2023/12/23 01:51:56;;;;;;;10.43;2.80;;;;;;;7.48;100.00;100899.34;5074527;28;20032;-36
2023/12/23 01:54:21;;;;;;;9.60;1.85;;;;;;;7.57;100.00;100908.03;5074232;28;20024;-36
2023/12/23 01:56:48;;;;;;;9.48;2.00;;;;;;;7.63;100.00;100903.69;5074628;28;20060;-36
2023/12/23 01:59:15;;;;;;;7.47;2.05;;;;;;;7.65;100.00;100906.97;5074075;28;20024;-36
2023/12/23 02:01:42;;;;;;;11.57;2.35;;;;;;;7.62;100.00;100877.81;5074356;28;20028;-36
2023/12/23 02:04:08;;;;;;;10.45;2.70;;;;;;;7.73;100.00;100896.00;5074042;28;20035;-36
2023/12/23 02:06:33;;;;;;;7.88;2.42;;;;;;;7.78;100.00;100898.88;5074858;28;20028;-36
2023/12/23 02:09:01;;;;;;;10.63;2.50;;;;;;;7.84;100.00;100900.72;5074536;28;20043;-36
2023/12/23 02:11:49;;;;;;;8.02;1.77;;;;;;;7.85;100.00;100891.59;5074260;28;20035;-36
2023/12/23 02:14:21;;;;;;;9.15;2.47;;;;;;;7.84;100.00;100887.25;5074218;28;20048;-36
2023/12/23 02:16:47;;;;;;;6.90;2.10;;;;;;;7.89;100.00;100882.06;5074061;28;20469;-36
2023/12/23 02:19:13;;;;;;;;;;;;;;;7.92;100.00;100884.34;5073933;28;20063;-36
2023/12/23 02:21:38;;;;;;;6.30;1.80;;;;;;;7.92;100.00;100880.84;5073551;28;19955;-36
2023/12/23 02:24:04;;;;;;;8.23;1.87;;;;;;;7.93;100.00;100874.41;5074520;28;20318;-36
2023/12/23 02:26:32;;;;;;;7.85;1.67;;;;;;;7.94;100.00;100881.44;5074281;28;20431;-36
2023/12/23 02:28:59;;;;;;;8.95;2.25;;;;;;;7.96;100.00;100884.75;5073357;28;20025;-36
2023/12/23 02:31:25;;;;;;;9.70;2.22;;;;;;;7.95;100.00;100889.31;5073451;28;20504;-36
2023/12/23 02:33:51;;;;;;;9.57;1.90;;;;;;;7.98;100.00;100886.19;5073619;28;20185;-36
2023/12/23 02:36:20;;;;;;;8.40;1.83;;;;;;;7.98;100.00;100867.31;5074145;28;20481;-36
2023/12/23 02:38:47;;;;;;;7.80;1.80;;;;;;;7.98;100.00;100864.63;5073785;28;20021;-36
2023/12/23 02:41:12;;;;;;;;;;;;;;;8.04;100.00;100859.44;5074073;28;20025;-36
2023/12/23 02:43:37;;;;;;;6.90;2.00;;;;;;;8.04;100.00;100865.66;5074031;28;19931;-36
2023/12/23 02:46:03;;;;;;;6.90;1.50;;;;;;;8.08;100.00;100860.66;5073341;28;20259;-36
2023/12/23 02:48:28;;;;;;;8.82;2.38;;;;;;;8.06;100.00;100854.69;5073487;28;20388;-36
2023/12/23 02:50:53;;;;;;;7.93;1.70;;;;;;;8.13;100.00;100847.38;5073548;28;20103;-36
2023/12/23 02:53:18;;;;;;;9.10;2.20;;;;;;;8.12;100.00;100851.13;5073210;28;20433;-36
2023/12/23 02:55:44;;;;;;;7.13;1.50;;;;;;;8.10;100.00;100855.88;5073267;28;20548;-36
2023/12/23 02:58:10;;;;;;;9.53;2.00;;;;;;;8.17;100.00;100848.59;5073712;28;20482;-36
2023/12/23 03:00:35;;;;;;;7.22;2.28;;;;;;;8.20;100.00;100857.09;5073629;28;20028;-36
2023/12/23 03:03:01;;;;;;;9.00;2.00;;;;;;;8.19;100.00;100851.91;5073001;28;20033;-36
2023/12/23 03:05:26;;;;;;;7.20;2.08;;;;;;;8.17;100.00;100845.91;5073592;28;20035;-36
2023/12/23 03:07:51;;;;;;;8.77;2.20;;;;;;;8.15;100.00;100840.75;5073243;28;20476;-36
2023/12/23 03:10:17;;;;;;;7.27;1.87;;;;;;;8.12;100.00;100827.69;5073004;28;20035;-36
2023/12/23 03:12:43;;;;;;;11.40;2.33;;;;;;;8.13;100.00;100845.50;5073006;28;20028;-36
2023/12/23 03:15:09;;;;;;;9.27;1.90;;;;;;;8.11;100.00;100839.53;5073153;28;20067;-36
2023/12/23 03:17:34;;;;;;;8.40;2.17;;;;;;;8.16;100.00;100833.50;5073161;28;20488;-36
2023/12/23 03:20:00;;;;;;;6.60;1.95;;;;;;;8.18;100.00;100831.41;5073179;28;20025;-36
2023/12/23 03:22:25;;;;;;;6.45;1.80;;;;;;;8.19;100.00;100830.34;5072874;28;20029;-36
2023/12/23 03:24:51;;;;;;;6.10;1.87;;;;;;;8.21;100.00;100833.66;5073363;28;20032;-36
2023/12/23 03:27:18;;;;;;;10.60;2.00;;;;;;;8.24;100.00;100833.22;5073457;28;20263;-36
2023/12/23 03:29:44;;;;;;;9.13;2.17;;;;;;;8.27;100.00;100854.34;5072956;28;20496;-36
2023/12/23 03:32:09;;;;;;;8.23;1.90;;;;;;;8.31;100.00;100834.03;5073132;28;20059;-36
2023/12/23 03:34:35;;;;;;;6.35;1.92;;;;;;;8.32;100.00;100814.13;5073039;28;20033;-36
2023/12/23 03:37:00;;;;;;;9.60;1.90;;;;;;;8.35;100.00;100829.03;5073060;28;20028;-36
2023/12/23 03:39:26;;;;;;;4.73;1.40;;;;;;;8.26;100.00;100804.22;5073036;28;20043;-36
2023/12/23 03:41:51;;;;;;;8.10;1.80;;;;;;;8.38;100.00;100812.44;5073895;28;20055;-36
2023/12/23 03:44:16;;;;;;;8.70;2.30;;;;;;;8.39;100.00;100811.41;5076460;28;20028;-36
2023/12/23 03:46:42;;;;;;;8.30;2.10;;;;;;;8.37;100.00;100805.41;5076993;28;20408;-36
2023/12/23 03:49:07;;;;;;;7.03;2.00;;;;;;;8.43;100.00;100808.06;5077154;28;20077;-36
2023/12/23 03:51:32;;;;;;;6.60;2.17;;;;;;;8.43;100.00;100821.53;5076975;28;20096;-36
2023/12/23 03:53:57;;;;;;;6.83;1.60;;;;;;;8.45;100.00;100819.47;5077062;28;20083;-36
2023/12/23 03:56:23;;;;;;;7.73;2.30;;;;;;;8.49;100.00;100801.81;5077472;28;20496;-36
2023/12/23 03:58:48;;;;;;;7.30;1.83;;;;;;;8.49;100.00;100825.22;5077027;28;20024;-36
2023/12/23 04:01:16;;;;;;;8.83;2.07;;;;;;;8.50;100.00;100822.34;5076515;28;20035;-36
2023/12/23 04:03:42;;;;;;;6.20;1.63;;;;;;;8.47;100.00;100806.59;5076300;28;20035;-36
2023/12/23 04:06:08;;;;;;;7.00;1.48;;;;;;;8.52;100.00;100809.44;5076375;28;20115;-36
2023/12/23 04:08:33;;;;;;;10.20;1.93;;;;;;;8.55;100.00;100810.06;5075966;28;20108;-36
2023/12/23 04:10:58;;;;;;;6.37;1.80;;;;;;;8.56;100.00;100804.47;5077127;28;20028;-36
2023/12/23 04:13:24;;;;;;;8.18;1.92;;;;;;;8.56;100.00;100799.06;5076727;28;20082;-36
2023/12/23 04:15:49;;;;;;;4.70;1.50;;;;;;;8.56;100.00;100792.84;5075884;28;20024;-36
2023/12/23 04:18:14;;;;;;;7.37;1.87;;;;;;;8.54;100.00;100801.16;5076684;28;20482;-36
2023/12/23 04:20:40;;;;;;;6.70;1.70;;;;;;;8.56;100.00;100801.75;5075838;28;20472;-37
2023/12/23 04:23:05;;;;;;;10.30;2.23;;;;;;;8.55;100.00;100796.59;5075751;28;20033;-36
2023/12/23 04:25:31;;;;;;;9.25;2.20;;;;;;;8.56;100.00;100784.75;5076774;28;20036;-36
2023/12/23 04:27:56;;;;;;;8.60;1.80;;;;;;;8.47;100.00;100766.16;5076096;28;20469;-36
2023/12/23 04:30:21;;;;;;;7.13;1.87;;;;;;;8.46;100.00;100763.69;5075893;28;20029;-36
2023/12/23 04:32:47;;;;;;;6.80;1.80;;;;;;;8.51;100.00;100750.38;5076084;28;20028;-36
2023/12/23 04:35:12;;;;;;;5.90;2.03;;;;;;;8.47;100.00;100747.28;5075693;28;20511;-36
2023/12/23 04:37:41;;;;;;;8.37;2.10;;;;;;;8.50;100.00;100751.44;5075729;28;20078;-36
2023/12/23 04:40:08;;;;;;;5.80;1.77;;;;;;;8.55;100.00;100754.28;5075612;28;20056;-36
2023/12/23 04:42:33;;;;;;;7.38;1.90;;;;;;;8.48;100.00;100738.16;5075989;28;20028;-36
2023/12/23 04:44:58;;;;;;;6.63;2.20;;;;;;;8.54;100.00;100747.25;5075646;28;20021;-36
2023/12/23 04:47:24;;;;;;;10.00;2.20;;;;;;;8.41;100.00;100740.09;5076178;28;20028;-36
2023/12/23 04:49:49;;;;;;;7.73;2.30;;;;;;;8.52;100.00;100754.72;5075590;28;20024;-36
2023/12/23 04:52:14;;;;;;;7.40;1.70;;;;;;;8.52;100.00;100765.50;5108341;28;20623;-36
2023/12/23 04:54:40;;;;;;;6.90;1.90;;;;;;;8.52;100.00;100769.03;5075343;28;20024;-36
2023/12/23 04:57:05;;;;;;;7.13;1.73;;;;;;;8.45;100.00;100748.56;5075129;28;20374;-36
2023/12/23 04:59:30;;;;;;;8.00;2.17;;;;;;;8.49;100.00;100750.63;5075319;28;20029;-36
2023/12/23 05:01:56;;;;;;;8.93;2.50;;;;;;;8.51;100.00;100753.91;5075569;28;20089;-36
2023/12/23 05:04:21;;;;;;;6.87;2.10;;;;;;;8.50;100.00;100749.56;5076054;28;20025;-36
2023/12/23 05:06:46;;;;;;;6.77;2.00;;;;;;;8.48;100.00;100740.84;5075214;28;20033;-36
2023/12/23 05:09:12;;;;;;;7.77;1.87;;;;;;;8.51;100.00;100763.88;5074851;28;20347;-36
2023/12/23 05:11:37;;;;;;;10.40;2.53;;;;;;;8.46;100.00;100756.44;5075201;28;20020;-36
2023/12/23 05:14:02;;;;;;;11.20;2.63;;;;;;;8.43;100.00;100746.09;5074731;28;20416;-36
2023/12/23 05:16:28;;;;;;;5.50;1.77;;;;;;;8.42;100.00;100730.97;5074757;28;20016;-36
2023/12/23 05:18:54;;;;;;;7.10;1.92;;;;;;;8.54;100.00;100741.03;5075152;28;20094;-36
2023/12/23 05:21:19;;;;;;;6.53;2.27;;;;;;;8.52;100.00;100747.47;5075332;28;20372;-36
2023/12/23 05:23:45;;;;;;;7.53;2.17;;;;;;;8.54;100.00;100741.88;5075090;28;20456;-36
2023/12/23 05:26:11;;;;;;;7.10;2.30;;;;;;;8.58;100.00;100745.75;5074907;28;20043;-36
2023/12/23 05:28:36;;;;;;;9.38;2.20;;;;;;;8.60;100.00;100740.16;5074702;28;20058;-36
2023/12/23 05:31:01;;;;;;;7.20;1.77;;;;;;;8.61;100.00;100749.91;5074521;28;20025;-36
2023/12/23 05:33:27;;;;;;;6.10;1.83;;;;;;;8.58;100.00;100736.84;5075155;28;20415;-36
2023/12/23 05:35:52;;;;;;;8.83;2.23;;;;;;;8.50;100.00;100724.50;5074861;28;20028;-36
2023/12/23 05:38:18;;;;;;;9.73;2.10;;;;;;;8.58;100.00;100723.38;5074854;28;20032;-36
2023/12/23 05:40:43;;;;;;;10.23;2.28;;;;;;;8.57;100.00;100727.94;5074309;28;20671;-36
2023/12/23 05:43:08;;;;;;;8.37;2.30;;;;;;;8.60;100.00;100729.38;5074435;28;20032;-36
2023/12/23 05:45:34;;;;;;;8.23;2.67;;;;;;;8.56;100.00;100736.25;5074182;28;20331;-36
2023/12/23 05:47:59;;;;;;;9.67;2.43;;;;;;;8.55;100.00;100729.22;5074075;28;20063;-36
2023/12/23 05:50:24;;;;;;;8.83;2.27;;;;;;;8.54;100.00;100725.69;5074154;28;20633;-36
2023/12/23 05:52:50;;;;;;;11.87;2.57;;;;;;;8.56;100.00;100745.16;5074670;28;20059;-36
2023/12/23 05:55:15;;;;;;;12.73;2.55;;;;;;;8.60;100.00;100740.16;5074084;28;20055;-36
2023/12/23 05:57:40;;;;;;;9.60;2.07;;;;;;;8.54;100.00;100731.09;5073938;28;20024;-37
2023/12/23 06:00:07;;;;;;;7.93;2.03;;;;;;;8.62;100.00;100751.53;5074180;28;20157;-36
2023/12/23 06:02:33;;;;;;;7.28;1.70;;;;;;;8.64;100.00;100744.06;5074652;28;20032;-36
2023/12/23 06:04:58;;;;;;;8.95;2.38;;;;;;;8.65;100.00;100737.63;5073823;28;20083;-36
2023/12/23 06:07:23;;;;;;;7.37;2.43;;;;;;;8.66;100.00;100728.50;5073799;28;20102;-36
2023/12/23 06:09:49;;;;;;;10.53;2.50;;;;;;;8.68;100.00;100734.47;5073916;28;20278;-36
2023/12/23 06:12:14;;;;;;;6.67;2.03;;;;;;;8.67;100.00;100735.53;5073768;28;20119;-36
2023/12/23 06:14:40;;;;;;;10.07;2.40;;;;;;;8.67;100.00;100735.53;5074201;28;20024;-36
2023/12/23 06:17:05;;;;;;;12.65;3.80;;;;;;;8.67;100.00;100727.44;5074101;28;20112;-36
2023/12/23 06:19:31;;;;;;;7.18;2.20;;;;;;;8.65;100.00;100722.28;5074087;28;20424;-36
2023/12/23 06:21:56;;;;;;;8.23;2.10;;;;;;;8.66;100.00;100729.31;5074111;28;20472;-36
2023/12/23 06:24:21;;;;;;;7.23;2.00;;;;;;;8.62;100.00;100738.06;5073790;28;20423;-36
2023/12/23 06:26:47;;;;;;;9.10;2.53;;;;;;;8.57;100.00;100729.81;5074064;28;20399;-36
2023/12/23 06:29:12;;;;;;;9.93;2.43;;;;;;;8.59;100.00;100736.66;5073457;28;20025;-36
2023/12/23 06:31:37;;;;;;;6.93;1.93;;;;;;;8.58;100.00;100748.44;5074243;28;20380;-36
2023/12/23 06:34:03;;;;;;;11.07;2.70;;;;;;;8.60;100.00;100742.84;5073881;28;20465;-36
2023/12/23 06:36:29;;;;;;;8.57;2.30;;;;;;;8.65;100.00;100741.16;5074111;28;20453;-36
2023/12/23 06:38:55;;;;;;;9.50;2.28;;;;;;;8.65;100.00;100735.75;5073257;28;20032;-36
2023/12/23 06:41:20;;;;;;;8.00;1.93;;;;;;;8.64;100.00;100730.59;5074126;28;20029;-36
2023/12/23 06:43:46;;;;;;;8.40;2.20;;;;;;;8.70;100.00;100724.31;5074006;28;20592;-36
2023/12/23 06:46:11;;;;;;;7.23;2.00;;;;;;;8.74;100.00;100733.59;5074366;28;20063;-36
2023/12/23 06:48:37;;;;;;;5.60;1.77;;;;;;;8.77;100.00;100738.53;5073506;28;20543;-36
2023/12/23 06:51:06;;;;;;;7.85;1.83;;;;;;;8.73;100.00;100730.06;5073196;28;20765;-36
2023/12/23 06:53:31;;;;;;;10.40;2.20;;;;;;;8.65;100.00;100708.81;5073405;28;20028;-36
2023/12/23 06:55:56;;;;;;;10.07;2.00;;;;;;;8.77;100.00;100752.84;5073145;28;20519;-36
2023/12/23 06:58:23;;;;;;;8.37;2.23;;;;;;;8.73;100.00;100721.16;5073221;28;20024;-36
2023/12/23 07:00:48;;;;;;;7.80;1.95;;;;;;;8.83;100.00;100724.16;5073979;28;20024;-36
2023/12/23 07:03:13;;;;;;;8.88;2.45;;;;;;;8.80;100.00;100727.31;5073402;28;20040;-36
2023/12/23 07:05:39;;;;;;;6.73;2.20;;;;;;;8.82;100.00;100732.47;5073679;28;20484;-36
2023/12/23 07:08:05;;;;;;;11.23;2.33;;;;;;;8.84;100.00;100725.84;5073595;28;20037;-36
2023/12/23 07:10:30;;;;;;;11.13;2.45;;;;;;;8.84;100.00;100719.63;5073853;28;20032;-36
2023/12/23 07:12:55;;;;;;;8.47;2.20;;;;;;;8.80;100.00;100707.63;5073573;28;20032;-36
2023/12/23 07:15:21;;;;;;;10.53;2.77;;;;;;;8.81;100.00;100710.09;5073173;28;20742;-36
2023/12/23 07:17:47;;;;;;;7.75;2.08;;;;;;;8.83;100.00;100724.16;5075040;28;20467;-36
2023/12/23 07:20:12;;;;;;;;;;;;;;;8.87;100.00;100738.03;5077672;28;20448;-36
2023/12/23 07:22:38;;;;;;;8.45;1.90;;;;;;;8.84;100.00;100725.84;5076923;28;19915;-36
2023/12/23 07:25:05;;;;;;;9.18;1.95;;;;;;;8.92;100.00;100735.50;5077159;28;20099;-36
2023/12/23 07:27:30;;;;;;;7.38;2.10;;;;;;;8.85;100.00;100727.47;5076830;28;20020;-36
2023/12/23 07:29:56;;;;;;;7.47;1.90;;;;;;;8.93;100.00;100754.16;5077060;28;20021;-36
2023/12/23 07:32:21;;;;;;;6.67;2.13;;;;;;;8.96;100.00;100740.22;5076679;28;20071;-36
2023/12/23 07:34:47;;;;;;;6.80;2.03;;;;;;;8.99;100.00;100744.38;5076634;28;20082;-37
2023/12/23 07:37:12;;;;;;;7.73;1.77;;;;;;;8.90;100.00;100724.94;5077110;28;20024;-36
2023/12/23 07:39:37;;;;;;;12.73;1.97;;;;;;;9.05;100.00;100750.72;5077165;28;20082;-36
2023/12/23 07:42:03;;;;;;;8.73;1.93;;;;;;;9.07;100.00;100729.75;5076570;28;20021;-36
2023/12/23 07:44:28;;;;;;;7.78;1.90;;;;;;;9.07;100.00;100751.31;5076451;28;20036;-36
2023/12/23 07:46:53;;;;;;;12.27;2.88;;;;;;;9.01;100.00;100742.25;5077012;28;20040;-36
2023/12/23 07:49:19;;;;;;;8.03;2.20;;;;;;;9.01;100.00;100726.91;5076610;28;20020;-37
2023/12/23 07:51:45;;;;;;;7.20;1.80;;;;;;;9.00;100.00;100714.47;5076890;28;20090;-36
2023/12/23 07:54:11;;;;;;;7.35;2.20;;;;;;;9.03;100.00;100718.59;5076228;28;20763;-36
2023/12/23 07:56:36;;;;;;;7.93;2.23;;;;;;;9.10;100.00;100737.41;5077051;28;20040;-36
2023/12/23 07:59:02;;;;;;;6.00;1.90;;;;;;;9.09;100.00;100747.38;5076507;28;20483;-36
2023/12/23 08:01:27;;;;;;;10.33;2.37;;;;;;;9.10;100.00;100750.88;5076689;28;20262;-36
2023/12/23 08:03:52;;;;;;;8.40;2.15;;;;;;;9.12;100.00;100751.47;5076329;28;20384;-36
2023/12/23 08:06:18;;;;;;;6.33;1.77;;;;;;;9.11;100.00;100745.25;5076901;28;20362;-36
2023/12/23 08:08:47;;;;;;;6.53;1.98;;;;;;;9.15;100.00;100749.16;5077114;28;20028;-36
2023/12/23 08:11:13;;;;;;;8.38;1.92;;;;;;;9.16;100.00;100741.88;5076560;28;20377;-36
2023/12/23 08:13:40;;;;;;;7.03;2.15;;;;;;;9.18;100.00;100739.81;5076489;28;20024;-37
2023/12/23 08:16:07;;;;;;;6.13;2.10;;;;;;;9.19;100.00;100738.75;5075826;28;20091;-36
2023/12/23 08:18:32;;;;;;;7.22;1.60;;;;;;;9.23;100.00;100745.34;5076107;28;20032;-36
2023/12/23 08:20:58;;;;;;;5.57;1.48;;;;;;;9.23;100.00;100756.97;5076311;28;20021;-36
2023/12/23 08:23:23;;;;;;;7.27;1.93;;;;;;;9.20;100.00;100751.19;5075583;28;20477;-36
2023/12/23 08:25:49;;;;;;;8.07;1.80;;;;;;;9.23;100.00;100750.75;5075672;28;20360;-37
2023/12/23 08:28:14;;;;;;;8.30;1.92;;;;;;;9.26;100.00;100750.28;5075475;28;20125;-36
2023/12/23 08:30:40;;;;;;;6.07;1.73;;;;;;;9.23;100.00;100761.56;5075618;28;20158;-36
2023/12/23 08:33:05;;;;;;;7.03;1.70;;;;;;;9.30;100.00;100746.09;5075900;28;20036;-36
2023/12/23 08:35:31;;;;;;;5.50;1.10;;;;;;;9.29;100.00;100750.66;5076389;28;20027;-36
2023/12/23 08:37:57;;;;;;;5.20;1.50;;;;;;;9.31;100.00;100755.84;5075797;28;20027;-36
2023/12/23 08:40:23;;;;;;;5.47;1.40;;;;;;;9.33;100.00;100764.56;5076411;28;20020;-36
2023/12/23 08:42:54;;;;;;;4.27;1.50;;;;;;;9.37;100.00;100763.06;5075731;28;20042;-36
2023/12/23 08:45:19;;;;;;;5.50;1.40;;;;;;;9.39;100.00;100741.22;5076281;28;20028;-36
2023/12/23 08:47:44;;;;;;;7.00;1.30;;;;;;;9.44;100.00;100757.56;5076476;28;20054;-37
2023/12/23 08:50:10;;;;;;;4.77;1.43;;;;;;;9.44;100.00;100757.56;5075871;28;20032;-36
2023/12/23 08:52:35;;;;;;;5.80;1.20;;;;;;;9.45;100.00;100767.31;5075825;28;20447;-36
2023/12/23 08:55:02;;;;;;;8.27;1.70;;;;;;;9.44;100.00;100769.19;5075384;28;20112;-36
2023/12/23 08:57:27;;;;;;;;;;;;;;;9.48;100.00;100783.88;5075802;28;20037;-36
2023/12/23 08:59:52;;;;;;;5.85;1.60;;;;;;;9.43;100.00;100791.84;5075381;28;19916;-37
2023/12/23 09:02:17;;;;;;;5.27;1.47;;;;;;;9.42;100.00;100792.88;5075639;28;20028;-36
2023/12/23 09:04:43;;;;;;;6.33;1.50;;;;;;;9.33;100.00;100791.53;5075544;28;20346;-36
2023/12/23 09:07:08;;;;;;;5.40;1.70;;;;;;;9.31;100.00;100801.72;5075365;28;20377;-36
2023/12/23 09:09:34;;;;;;;6.82;2.00;;;;;;;9.26;100.00;100817.75;5075684;28;20453;-36
2023/12/23 09:11:59;;;;;;;7.47;1.73;;;;;;;9.06;100.00;100790.13;5075458;28;20032;-36
2023/12/23 09:14:25;;;;;;;6.25;2.08;;;;;;;9.12;100.00;100802.72;5075056;28;20068;-36
2023/12/23 09:16:50;;;;;;;5.87;1.67;;;;;;;9.05;100.00;100800.09;5075405;28;20025;-36
2023/12/23 09:19:15;;;;;;;10.20;1.73;;;;;;;9.01;100.00;100805.13;5074427;28;20025;-36
2023/12/23 09:21:41;;;;;;;7.13;1.80;;;;;;;8.94;100.00;100801.66;5075365;28;20031;-36
2023/12/23 09:24:06;;;;;;;8.30;1.80;;;;;;;9.01;100.00;100815.09;5074498;28;20059;-37
2023/12/23 09:26:32;;;;;;;6.07;1.90;;;;;;;8.96;100.00;100796.03;5074232;28;20025;-36
2023/12/23 09:28:57;;;;;;;6.80;1.63;;;;;;;9.02;100.00;100809.44;5074607;28;20266;-36
2023/12/23 09:31:22;;;;;;;6.03;1.80;;;;;;;8.96;100.00;100793.34;5074773;28;20021;-36
2023/12/23 09:33:48;;;;;;;5.37;1.93;;;;;;;9.03;100.00;100810.31;5074290;28;20074;-36
2023/12/23 09:36:13;;;;;;;5.60;1.50;;;;;;;9.05;100.00;100808.19;5074783;28;20025;-36
2023/12/23 09:38:38;;;;;;;5.07;1.90;;;;;;;9.01;100.00;100801.59;5074160;28;20759;-36
2023/12/23 09:41:04;;;;;;;7.27;2.63;;;;;;;9.07;100.00;100814.19;5074021;28;20055;-36
2023/12/23 09:43:30;;;;;;;5.32;1.63;;;;;;;9.11;100.00;100819.97;5074251;28;20036;-36
2023/12/23 09:45:57;;;;;;;5.35;1.58;;;;;;;9.11;100.00;100814.56;5074418;28;20032;-37
2023/12/23 09:48:22;;;;;;;6.45;1.90;;;;;;;9.12;100.00;100819.75;5074373;28;20028;-38
2023/12/23 09:50:48;;;;;;;7.80;1.75;;;;;;;9.19;100.00;100838.59;5074688;28;20037;-36
2023/12/23 09:53:14;;;;;;;9.00;1.90;;;;;;;9.22;100.00;100833.56;5074196;28;20104;-36
2023/12/23 09:55:43;;;;;;;6.30;1.75;;;;;;;9.26;100.00;100817.75;5074417;28;20041;-36
2023/12/23 09:58:08;;;;;;;6.60;1.88;;;;;;;9.27;100.00;100827.47;5074461;28;20033;-36
2023/12/23 10:00:34;;;;;;;8.20;1.73;;;;;;;9.28;100.00;100838.06;5074204;28;20066;-36
2023/12/23 10:02:59;;;;;;;7.70;1.73;;;;;;;9.23;100.00;100832.53;5074466;28;20305;-36
2023/12/23 10:05:29;;;;;;;10.68;2.20;;;;;;;9.29;100.00;100836.19;5074056;28;20274;-36
2023/12/23 10:07:59;;;;;;;9.32;2.30;;;;;;;9.25;100.00;100822.31;5074867;28;20432;-36
2023/12/23 10:10:31;;;;;;;7.82;1.42;;;;;;;9.33;100.00;100837.41;5073991;28;20029;-36
2023/12/23 10:12:56;;;;;;;5.38;1.73;;;;;;;9.35;100.00;100851.50;5074240;28;20078;-36
2023/12/23 10:15:21;;;;;;;4.93;1.27;;;;;;;9.37;100.00;100837.75;5073593;28;20469;-36
2023/12/23 10:17:47;;;;;;;7.17;1.80;;;;;;;9.36;100.00;100834.25;5073342;28;20598;-36
2023/12/23 10:20:13;;;;;;;8.65;1.90;;;;;;;9.30;100.00;100816.25;5072645;28;20401;-36
2023/12/23 10:22:45;;;;;;;5.75;1.80;;;;;;;9.39;100.00;100808.69;5073427;28;20055;-36
2023/12/23 10:25:11;;;;;;;7.88;1.45;;;;;;;9.41;100.00;100818.22;5072724;28;20036;-36
2023/12/23 10:27:40;;;;;;;5.53;1.58;;;;;;;9.34;100.00;100800.44;5072125;28;20038;-36
2023/12/23 10:30:09;;;;;;;8.90;1.85;;;;;;;9.48;100.00;100818.16;5072201;28;20032;-36
2023/12/23 10:32:36;;;;;;;9.20;1.80;;;;;;;9.53;100.00;100821.81;5073021;28;20119;-36
2023/12/23 10:35:02;;;;;;;8.25;2.13;;;;;;;9.57;100.00;100824.09;5073818;28;20039;-36
2023/12/23 10:37:29;;;;;;;;;;;;;;;9.61;100.00;100828.78;5074769;28;20032;-37
2023/12/23 10:40:09;;;;;;;8.73;1.90;;;;;;;9.61;100.00;100822.56;5074001;28;20331;-36
2023/12/23 10:42:35;;;;;;;7.90;1.88;;;;;;;9.66;100.00;100830.81;5073621;28;20537;-36
2023/12/23 10:45:01;;;;;;;7.72;1.75;;;;;;;9.62;100.00;100814.25;5073275;28;20137;-36
2023/12/23 10:47:29;;;;;;;5.18;1.35;;;;;;;9.66;100.00;100812.75;5073300;28;20059;-36
2023/12/23 10:49:56;;;;;;;5.50;1.45;;;;;;;9.78;100.00;100824.44;5074232;28;20028;-36
2023/12/23 10:52:22;;;;;;;6.97;1.42;;;;;;;9.83;100.00;100804.88;5073208;28;20032;-37
2023/12/23 10:54:48;;;;;;;5.88;1.40;;;;;;;9.86;100.00;100801.72;5073608;28;20032;-36
2023/12/23 10:57:15;;;;;;;5.40;1.05;;;;;;;9.91;100.00;100812.66;5073856;28;20071;-37
2023/12/23 10:59:40;;;;;;;6.70;1.50;;;;;;;9.92;100.00;100800.81;5073366;28;20040;-37
2023/12/23 11:02:14;;;;;;;4.97;1.40;;;;;;;9.97;100.00;100821.72;5073344;28;20032;-37
2023/12/23 11:04:42;;;;;;;12.70;2.95;;;;;;;9.97;100.00;100809.03;5073255;28;20028;-37
2023/12/23 11:07:11;;;;;;;7.65;1.70;;;;;;;9.97;100.00;100800.94;5073220;28;20039;-37
2023/12/23 11:09:38;;;;;;;4.95;1.40;;;;;;;10.05;100.00;100819.56;5073083;28;20036;-37
2023/12/23 11:12:04;;;;;;;8.10;1.40;;;;;;;9.97;100.00;100810.94;5073264;28;20028;-37
2023/12/23 11:14:29;;;;;;;;;;;;;;;10.14;100.00;100824.63;5073830;28;20040;-37
2023/12/23 11:16:57;;;;;;;6.18;1.60;;;;;;;10.12;100.00;100830.25;5073932;28;19916;-37
2023/12/23 11:19:24;;;;;;;6.00;1.27;;;;;;;10.07;100.00;100817.44;5073127;28;20028;-37